createdAt,value
2023-01-07T00:00:52.753Z,4.62
2023-01-07T00:01:52.759Z,4.61
2023-01-07T00:02:52.847Z,4.61
2023-01-07T00:03:52.794Z,4.61
2023-01-07T00:04:52.676Z,4.59
2023-01-07T00:05:52.692Z,4.57
2023-01-07T00:06:52.653Z,4.54
2023-01-07T00:07:52.671Z,4.50
2023-01-07T00:08:52.649Z,4.48
2023-01-07T00:09:52.623Z,4.48
2023-01-07T00:10:52.610Z,4.50
2023-01-07T00:11:52.614Z,4.51
2023-01-07T00:12:52.614Z,4.52
2023-01-07T00:13:52.616Z,4.52
2023-01-07T00:14:52.546Z,4.52
2023-01-07T00:15:52.589Z,4.52
2023-01-07T00:16:52.531Z,4.51
2023-01-07T00:17:52.498Z,4.50
2023-01-07T00:18:52.499Z,4.50
2023-01-07T00:19:52.495Z,4.52
2023-01-07T00:20:52.486Z,4.55
2023-01-07T00:21:52.447Z,4.56
2023-01-07T00:22:52.481Z,4.57
2023-01-07T00:23:52.453Z,4.58
2023-01-07T00:24:52.440Z,4.58
2023-01-07T00:25:52.440Z,4.58
2023-01-07T00:26:52.402Z,4.57
2023-01-07T00:27:52.403Z,4.57
2023-01-07T00:28:52.379Z,4.58
2023-01-07T00:29:52.367Z,4.58
2023-01-07T00:30:52.330Z,4.57
2023-01-07T00:31:52.377Z,4.56
2023-01-07T00:32:52.367Z,4.54
2023-01-07T00:33:52.324Z,4.51
2023-01-07T00:34:52.312Z,4.49
2023-01-07T00:35:52.325Z,4.48
2023-01-07T00:36:52.285Z,4.47
2023-01-07T00:37:52.292Z,4.47
2023-01-07T00:38:52.274Z,4.48
2023-01-07T00:39:52.209Z,4.47
2023-01-07T00:40:52.219Z,4.46
2023-01-07T00:41:52.227Z,4.47
2023-01-07T00:42:52.185Z,4.48
2023-01-07T00:43:52.158Z,4.50
2023-01-07T00:44:52.169Z,4.50
2023-01-07T00:45:52.152Z,4.50
2023-01-07T00:46:52.191Z,4.49
2023-01-07T00:47:52.105Z,4.50
2023-01-07T00:48:52.095Z,4.51
2023-01-07T00:49:52.069Z,4.51
2023-01-07T00:50:52.120Z,4.50
2023-01-07T00:51:52.066Z,4.48
2023-01-07T00:52:52.059Z,4.45
2023-01-07T00:53:52.030Z,4.45
2023-01-07T00:54:52.050Z,4.44
2023-01-07T00:55:52.021Z,4.41
2023-01-07T00:56:52.011Z,4.39
2023-01-07T00:57:52.001Z,4.40
2023-01-07T00:58:52.000Z,4.42
2023-01-07T00:59:51.960Z,4.43
2023-01-07T01:00:52.104Z,4.43
2023-01-07T01:01:51.992Z,4.43
2023-01-07T01:02:51.999Z,4.42
2023-01-07T01:03:51.924Z,4.42
2023-01-07T01:04:51.895Z,4.42
2023-01-07T01:05:51.863Z,4.46
2023-01-07T01:06:51.888Z,4.49
2023-01-07T01:07:51.896Z,4.50
2023-01-07T01:08:51.854Z,4.50
2023-01-07T01:09:51.840Z,4.50
2023-01-07T01:10:51.843Z,4.50
2023-01-07T01:11:51.793Z,4.50
2023-01-07T01:12:51.780Z,4.48
2023-01-07T01:13:51.772Z,4.46
2023-01-07T01:14:51.777Z,4.45
2023-01-07T01:15:51.811Z,4.45
2023-01-07T01:16:51.801Z,4.44
2023-01-07T01:17:51.723Z,4.46
2023-01-07T01:18:51.756Z,4.48
2023-01-07T01:19:51.688Z,4.48
2023-01-07T01:20:51.724Z,4.51
2023-01-07T01:21:51.666Z,4.55
2023-01-07T01:22:51.671Z,4.59
2023-01-07T01:23:51.657Z,4.62
2023-01-07T01:24:51.634Z,4.65
2023-01-07T01:25:51.602Z,4.69
2023-01-07T01:26:51.657Z,4.74
2023-01-07T01:27:51.593Z,4.77
2023-01-07T01:28:51.584Z,4.81
2023-01-07T01:29:51.569Z,4.83
2023-01-07T01:30:51.555Z,4.83
2023-01-07T01:31:51.635Z,4.83
2023-01-07T01:32:51.555Z,4.83
2023-01-07T01:33:51.535Z,4.82
2023-01-07T01:34:51.483Z,4.81
2023-01-07T01:35:51.479Z,4.80
2023-01-07T01:36:51.481Z,4.79
2023-01-07T01:37:51.460Z,4.80
2023-01-07T01:38:51.466Z,4.82
2023-01-07T01:39:51.437Z,4.82
2023-01-07T01:40:51.456Z,4.81
2023-01-07T01:41:51.390Z,4.80
2023-01-07T01:42:51.425Z,4.82
2023-01-07T01:43:51.375Z,4.84
2023-01-07T01:44:51.383Z,4.86
2023-01-07T01:45:51.368Z,4.86
2023-01-07T01:46:51.434Z,4.88
2023-01-07T01:47:51.332Z,4.89
2023-01-07T01:48:51.339Z,4.87
2023-01-07T01:49:51.326Z,4.87
2023-01-07T01:50:51.281Z,4.86
2023-01-07T01:51:51.270Z,4.84
2023-01-07T01:52:51.263Z,4.81
2023-01-07T01:53:51.295Z,4.76
2023-01-07T01:54:51.226Z,4.70
2023-01-07T01:55:51.226Z,4.67
2023-01-07T01:56:51.207Z,4.66
2023-01-07T01:57:51.222Z,4.67
2023-01-07T01:58:51.207Z,4.68
2023-01-07T01:59:51.216Z,4.68
2023-01-07T02:00:51.254Z,4.70
2023-01-07T02:01:51.189Z,4.72
2023-01-07T02:02:51.208Z,4.73
2023-01-07T02:03:51.120Z,4.74
2023-01-07T02:04:51.120Z,4.73
2023-01-07T02:05:51.100Z,4.70
2023-01-07T02:06:51.077Z,4.67
2023-01-07T02:07:51.038Z,4.66
2023-01-07T02:08:51.044Z,4.64
2023-01-07T02:09:51.038Z,4.61
2023-01-07T02:10:51.057Z,4.58
2023-01-07T02:11:51.014Z,4.56
2023-01-07T02:12:51.037Z,4.55
2023-01-07T02:13:50.972Z,4.55
2023-01-07T02:14:50.981Z,4.51
2023-01-07T02:15:50.979Z,4.47
2023-01-07T02:16:50.957Z,4.43
2023-01-07T02:17:50.949Z,4.39
2023-01-07T02:18:50.943Z,4.36
2023-01-07T02:19:50.913Z,4.34
2023-01-07T02:20:50.892Z,4.31
2023-01-07T02:21:50.884Z,4.27
2023-01-07T02:22:50.878Z,4.21
2023-01-07T02:23:50.837Z,4.14
2023-01-07T02:24:50.842Z,4.05
2023-01-07T02:25:50.832Z,3.98
2023-01-07T02:26:50.808Z,3.96
2023-01-07T02:27:50.774Z,3.98
2023-01-07T02:28:50.844Z,4.00
2023-01-07T02:29:50.777Z,4.00
2023-01-07T02:30:50.738Z,3.99
2023-01-07T02:31:50.789Z,3.97
2023-01-07T02:32:50.723Z,3.93
2023-01-07T02:33:50.742Z,3.89
2023-01-07T02:34:50.731Z,3.82
2023-01-07T02:35:50.684Z,3.75
2023-01-07T02:36:50.672Z,3.71
2023-01-07T02:37:50.639Z,3.69
2023-01-07T02:38:50.638Z,3.68
2023-01-07T02:39:50.627Z,3.71
2023-01-07T02:40:50.640Z,3.74
2023-01-07T02:41:50.616Z,3.77
2023-01-07T02:42:50.614Z,3.80
2023-01-07T02:43:50.574Z,3.82
2023-01-07T02:44:50.596Z,3.83
2023-01-07T02:45:50.627Z,3.84
2023-01-07T02:46:50.552Z,3.84
2023-01-07T02:47:50.531Z,3.84
2023-01-07T02:48:50.543Z,3.82
2023-01-07T02:49:50.508Z,3.79
2023-01-07T02:50:50.497Z,3.74
2023-01-07T02:51:50.501Z,3.69
2023-01-07T02:52:50.458Z,3.65
2023-01-07T02:53:50.453Z,3.62
2023-01-07T02:54:50.488Z,3.60
2023-01-07T02:55:50.423Z,3.58
2023-01-07T02:56:50.469Z,3.57
2023-01-07T02:57:50.411Z,3.59
2023-01-07T02:58:50.374Z,3.61
2023-01-07T02:59:50.352Z,3.62
2023-01-07T03:00:50.480Z,3.60
2023-01-07T03:01:50.468Z,3.56
2023-01-07T03:02:50.337Z,3.51
2023-01-07T03:03:50.340Z,3.48
2023-01-07T03:04:50.318Z,3.47
2023-01-07T03:05:50.323Z,3.46
2023-01-07T03:06:50.273Z,3.40
2023-01-07T03:07:50.328Z,3.33
2023-01-07T03:08:50.237Z,3.28
2023-01-07T03:09:50.235Z,3.27
2023-01-07T03:10:50.263Z,3.30
2023-01-07T03:11:50.274Z,3.34
2023-01-07T03:12:50.252Z,3.37
2023-01-07T03:13:50.223Z,3.40
2023-01-07T03:14:50.247Z,3.42
2023-01-07T03:15:50.160Z,3.44
2023-01-07T03:16:50.205Z,3.45
2023-01-07T03:17:50.276Z,3.43
2023-01-07T03:18:50.117Z,3.39
2023-01-07T03:19:50.119Z,3.34
2023-01-07T03:20:50.094Z,3.28
2023-01-07T03:21:50.102Z,3.25
2023-01-07T03:22:50.064Z,3.25
2023-01-07T03:23:50.051Z,3.26
2023-01-07T03:24:50.109Z,3.29
2023-01-07T03:25:50.041Z,3.35
2023-01-07T03:26:50.036Z,3.41
2023-01-07T03:27:50.036Z,3.46
2023-01-07T03:28:49.988Z,3.52
2023-01-07T03:29:49.989Z,3.58
2023-01-07T03:30:49.985Z,3.63
2023-01-07T03:31:49.970Z,3.67
2023-01-07T03:32:49.968Z,3.69
2023-01-07T03:33:50.013Z,3.65
2023-01-07T03:34:49.934Z,3.59
2023-01-07T03:35:49.916Z,3.53
2023-01-07T03:36:49.923Z,3.52
2023-01-07T03:37:49.894Z,3.52
2023-01-07T03:38:49.857Z,3.52
2023-01-07T03:39:49.874Z,3.51
2023-01-07T03:40:49.866Z,3.48
2023-01-07T03:41:49.815Z,3.45
2023-01-07T03:42:49.785Z,3.44
2023-01-07T03:43:49.800Z,3.45
2023-01-07T03:44:49.788Z,3.49
2023-01-07T03:45:49.819Z,3.56
2023-01-07T03:46:49.827Z,3.67
2023-01-07T03:47:49.752Z,3.81
2023-01-07T03:48:49.713Z,3.94
2023-01-07T03:49:49.722Z,4.04
2023-01-07T03:50:49.702Z,4.10
2023-01-07T03:51:49.715Z,4.13
2023-01-07T03:52:49.707Z,4.15
2023-01-07T03:53:49.682Z,4.15
2023-01-07T03:54:49.664Z,4.15
2023-01-07T03:55:49.628Z,4.14
2023-01-07T03:56:49.614Z,4.16
2023-01-07T03:57:49.650Z,4.22
2023-01-07T03:58:49.620Z,4.30
2023-01-07T03:59:49.587Z,4.35
2023-01-07T04:00:49.685Z,4.38
2023-01-07T04:01:49.703Z,4.39
2023-01-07T04:02:49.539Z,4.41
2023-01-07T04:03:49.553Z,4.43
2023-01-07T04:04:49.625Z,4.43
2023-01-07T04:05:49.521Z,4.46
2023-01-07T04:06:49.494Z,4.49
2023-01-07T04:07:49.512Z,4.51
2023-01-07T04:08:49.458Z,4.50
2023-01-07T04:09:49.450Z,4.47
2023-01-07T04:10:49.481Z,4.43
2023-01-07T04:11:49.455Z,4.44
2023-01-07T04:12:49.395Z,4.51
2023-01-07T04:13:49.404Z,4.58
2023-01-07T04:14:49.413Z,4.65
2023-01-07T04:15:49.410Z,4.70
2023-01-07T04:16:49.416Z,4.75
2023-01-07T04:17:49.349Z,4.80
2023-01-07T04:18:49.341Z,4.83
2023-01-07T04:19:49.333Z,4.83
2023-01-07T04:20:49.301Z,4.82
2023-01-07T04:21:49.298Z,4.81
2023-01-07T04:22:49.296Z,4.77
2023-01-07T04:23:49.304Z,4.67
2023-01-07T04:24:49.269Z,4.55
2023-01-07T04:25:49.305Z,4.43
2023-01-07T04:26:49.232Z,4.31
2023-01-07T04:27:49.204Z,4.20
2023-01-07T04:28:49.278Z,4.12
2023-01-07T04:29:49.202Z,4.06
2023-01-07T04:30:49.262Z,4.01
2023-01-07T04:31:49.176Z,3.98
2023-01-07T04:32:49.157Z,4.03
2023-01-07T04:33:49.137Z,4.12
2023-01-07T04:34:49.115Z,4.22
2023-01-07T04:35:49.101Z,4.27
2023-01-07T04:36:49.119Z,4.35
2023-01-07T04:37:49.069Z,4.47
2023-01-07T04:38:49.070Z,4.55
2023-01-07T04:39:49.074Z,4.57
2023-01-07T04:40:49.036Z,4.53
2023-01-07T04:41:49.054Z,4.43
2023-01-07T04:42:49.041Z,4.29
2023-01-07T04:43:49.046Z,4.15
2023-01-07T04:44:48.997Z,4.07
2023-01-07T04:45:49.009Z,4.04
2023-01-07T04:46:48.948Z,4.02
2023-01-07T04:47:48.994Z,4.04
2023-01-07T04:48:48.946Z,4.08
2023-01-07T04:49:48.967Z,4.15
2023-01-07T04:50:48.881Z,4.24
2023-01-07T04:51:48.873Z,4.32
2023-01-07T04:52:48.865Z,4.42
2023-01-07T04:53:48.914Z,4.53
2023-01-07T04:54:48.914Z,4.65
2023-01-07T04:55:48.852Z,4.74
2023-01-07T04:56:48.830Z,4.79
2023-01-07T04:57:48.829Z,4.81
2023-01-07T04:58:48.801Z,4.84
2023-01-07T04:59:48.839Z,4.87
2023-01-07T05:00:48.823Z,4.91
2023-01-07T05:01:48.875Z,4.95
2023-01-07T05:02:48.748Z,4.96
2023-01-07T05:03:48.759Z,4.96
2023-01-07T05:04:48.799Z,4.95
2023-01-07T05:05:48.720Z,4.93
2023-01-07T05:06:48.703Z,4.90
2023-01-07T05:07:48.694Z,4.87
2023-01-07T05:08:48.678Z,4.85
2023-01-07T05:09:48.688Z,4.83
2023-01-07T05:10:48.688Z,4.82
2023-01-07T05:11:48.647Z,4.81
2023-01-07T05:12:48.631Z,4.79
2023-01-07T05:13:48.616Z,4.78
2023-01-07T05:14:48.568Z,4.78
2023-01-07T05:15:48.567Z,4.78
2023-01-07T05:16:48.585Z,4.79
2023-01-07T05:17:48.605Z,4.80
2023-01-07T05:18:48.556Z,4.80
2023-01-07T05:19:48.560Z,4.81
2023-01-07T05:20:48.511Z,4.82
2023-01-07T05:21:48.547Z,4.81
2023-01-07T05:22:50.263Z,4.81
2023-01-07T05:23:48.513Z,4.81
2023-01-07T05:24:48.460Z,4.80
2023-01-07T05:25:48.452Z,4.80
2023-01-07T05:26:48.459Z,4.79
2023-01-07T05:27:48.433Z,4.79
2023-01-07T05:28:48.392Z,4.80
2023-01-07T05:29:48.417Z,4.81
2023-01-07T05:30:48.391Z,4.84
2023-01-07T05:31:48.373Z,4.87
2023-01-07T05:32:48.362Z,4.88
2023-01-07T05:33:48.364Z,4.89
2023-01-07T05:34:48.337Z,4.91
2023-01-07T05:35:48.318Z,4.94
2023-01-07T05:36:48.317Z,4.96
2023-01-07T05:37:48.284Z,4.96
2023-01-07T05:38:48.266Z,4.97
2023-01-07T05:39:48.295Z,4.98
2023-01-07T05:40:49.609Z,5.00
2023-01-07T05:41:48.236Z,5.01
2023-01-07T05:42:48.211Z,5.04
2023-01-07T05:43:48.187Z,5.09
2023-01-07T05:44:48.181Z,5.11
2023-01-07T05:45:48.204Z,5.13
2023-01-07T05:46:48.176Z,5.17
2023-01-07T05:47:48.148Z,5.19
2023-01-07T05:48:48.116Z,5.20
2023-01-07T05:49:48.183Z,5.24
2023-01-07T05:50:48.115Z,5.29
2023-01-07T05:51:48.107Z,5.32
2023-01-07T05:52:48.152Z,5.31
2023-01-07T05:53:48.136Z,5.28
2023-01-07T05:54:48.069Z,5.24
2023-01-07T05:55:48.078Z,5.21
2023-01-07T05:56:48.087Z,5.19
2023-01-07T05:57:48.083Z,5.18
2023-01-07T05:58:48.073Z,5.21
2023-01-07T05:59:47.998Z,5.25
2023-01-07T06:00:47.982Z,5.30
2023-01-07T06:01:47.976Z,5.35
2023-01-07T06:02:47.969Z,5.39
2023-01-07T06:03:48.065Z,5.42
2023-01-07T06:04:47.962Z,5.44
2023-01-07T06:05:47.928Z,5.44
2023-01-07T06:06:47.913Z,5.43
2023-01-07T06:07:47.892Z,5.44
2023-01-07T06:08:47.879Z,5.45
2023-01-07T06:09:47.879Z,5.45
2023-01-07T06:10:47.848Z,5.46
2023-01-07T06:11:47.839Z,5.47
2023-01-07T06:12:47.844Z,5.47
2023-01-07T06:13:47.819Z,5.47
2023-01-07T06:14:47.783Z,5.49
2023-01-07T06:15:47.843Z,5.51
2023-01-07T06:16:47.795Z,5.52
2023-01-07T06:17:47.733Z,5.54
2023-01-07T06:18:47.776Z,5.56
2023-01-07T06:19:47.773Z,5.57
2023-01-07T06:20:47.736Z,5.58
2023-01-07T06:21:47.720Z,5.59
2023-01-07T06:22:47.705Z,5.60
2023-01-07T06:23:47.660Z,5.58
2023-01-07T06:24:47.676Z,5.55
2023-01-07T06:25:47.652Z,5.51
2023-01-07T06:26:47.631Z,5.49
2023-01-07T06:27:47.611Z,5.48
2023-01-07T06:28:47.598Z,5.49
2023-01-07T06:29:47.604Z,5.51
2023-01-07T06:30:47.654Z,5.54
2023-01-07T06:31:47.573Z,5.57
2023-01-07T06:32:47.569Z,5.59
2023-01-07T06:33:47.610Z,5.61
2023-01-07T06:34:47.532Z,5.65
2023-01-07T06:35:47.522Z,5.68
2023-01-07T06:36:47.483Z,5.71
2023-01-07T06:37:47.498Z,5.73
2023-01-07T06:38:47.488Z,5.75
2023-01-07T06:39:47.466Z,5.77
2023-01-07T06:40:47.486Z,5.78
2023-01-07T06:41:47.459Z,5.80
2023-01-07T06:42:47.402Z,5.81
2023-01-07T06:43:47.426Z,5.82
2023-01-07T06:44:47.393Z,5.83
2023-01-07T06:45:47.368Z,5.83
2023-01-07T06:46:47.344Z,5.84
2023-01-07T06:47:47.392Z,5.84
2023-01-07T06:48:47.345Z,5.85
2023-01-07T06:49:47.344Z,5.87
2023-01-07T06:50:47.347Z,5.88
2023-01-07T06:51:47.313Z,5.90
2023-01-07T06:52:47.268Z,5.90
2023-01-07T06:53:47.298Z,5.90
2023-01-07T06:54:48.590Z,5.90
2023-01-07T06:55:47.243Z,5.91
2023-01-07T06:56:47.258Z,5.91
2023-01-07T06:57:47.221Z,5.92
2023-01-07T06:58:47.233Z,5.92
2023-01-07T06:59:47.210Z,5.92
2023-01-07T07:00:47.203Z,5.94
2023-01-07T07:01:47.276Z,5.95
2023-01-07T07:02:47.195Z,5.95
2023-01-07T07:03:47.180Z,5.95
2023-01-07T07:04:47.138Z,5.96
2023-01-07T07:05:47.121Z,5.96
2023-01-07T07:06:47.132Z,5.96
2023-01-07T07:07:47.066Z,5.98
2023-01-07T07:08:47.060Z,5.99
2023-01-07T07:09:47.148Z,6.01
2023-01-07T07:10:47.024Z,6.03
2023-01-07T07:11:47.032Z,6.04
2023-01-07T07:12:47.043Z,6.05
2023-01-07T07:13:47.045Z,6.06
2023-01-07T07:14:47.008Z,6.06
2023-01-07T07:15:47.015Z,6.08
2023-01-07T07:16:46.966Z,6.09
2023-01-07T07:17:46.949Z,6.10
2023-01-07T07:18:46.987Z,6.10
2023-01-07T07:19:46.920Z,6.10
2023-01-07T07:20:46.914Z,6.09
2023-01-07T07:21:46.886Z,6.09
2023-01-07T07:22:46.892Z,6.10
2023-01-07T07:23:46.898Z,6.10
2023-01-07T07:24:46.898Z,6.10
2023-01-07T07:25:46.847Z,6.10
2023-01-07T07:26:46.817Z,6.10
2023-01-07T07:27:46.853Z,6.10
2023-01-07T07:28:46.803Z,6.11
2023-01-07T07:29:46.780Z,6.12
2023-01-07T07:30:47.576Z,6.12
2023-01-07T07:31:46.748Z,6.13
2023-01-07T07:32:46.802Z,6.13
2023-01-07T07:33:46.759Z,6.13
2023-01-07T07:34:46.719Z,6.13
2023-01-07T07:35:46.750Z,6.14
2023-01-07T07:36:46.717Z,6.14
2023-01-07T07:37:46.672Z,6.14
2023-01-07T07:38:46.703Z,6.14
2023-01-07T07:39:46.706Z,6.14
2023-01-07T07:40:46.718Z,6.15
2023-01-07T07:41:46.641Z,6.15
2023-01-07T07:43:10.246Z,6.16
2023-01-07T07:43:46.628Z,6.17
2023-01-07T07:44:46.612Z,6.17
2023-01-07T07:45:46.586Z,6.17
2023-01-07T07:46:46.662Z,6.17
2023-01-07T07:47:46.563Z,6.17
2023-01-07T07:48:46.554Z,6.17
2023-01-07T07:49:46.536Z,6.18
2023-01-07T07:50:46.522Z,6.18
2023-01-07T07:51:46.525Z,6.18
2023-01-07T07:52:46.504Z,6.19
2023-01-07T07:53:46.458Z,6.18
2023-01-07T07:54:46.482Z,6.18
2023-01-07T07:55:46.471Z,6.18
2023-01-07T07:56:46.444Z,6.18
2023-01-07T07:57:46.415Z,6.17
2023-01-07T07:58:46.435Z,6.17
2023-01-07T07:59:46.412Z,6.17
2023-01-07T08:00:46.366Z,6.18
2023-01-07T08:01:46.547Z,6.18
2023-01-07T08:02:46.362Z,6.18
2023-01-07T08:03:46.483Z,6.18
2023-01-07T08:04:46.319Z,6.18
2023-01-07T08:05:46.317Z,6.18
2023-01-07T08:06:46.316Z,6.19
2023-01-07T08:07:46.290Z,6.19
2023-01-07T08:08:46.308Z,6.20
2023-01-07T08:09:46.260Z,6.20
2023-01-07T08:10:46.274Z,6.21
2023-01-07T08:11:46.223Z,6.22
2023-01-07T08:12:46.227Z,6.23
2023-01-07T08:13:46.226Z,6.25
2023-01-07T08:14:46.236Z,6.26
2023-01-07T08:15:46.247Z,6.27
2023-01-07T08:16:46.155Z,6.28
2023-01-07T08:17:46.179Z,6.29
2023-01-07T08:18:46.162Z,6.30
2023-01-07T08:19:46.143Z,6.31
2023-01-07T08:20:46.128Z,6.32
2023-01-07T08:21:46.101Z,6.32
2023-01-07T08:22:46.099Z,6.33
2023-01-07T08:23:46.090Z,6.34
2023-01-07T08:24:46.076Z,6.35
2023-01-07T08:25:46.093Z,6.36
2023-01-07T08:26:46.022Z,6.37
2023-01-07T08:27:46.068Z,6.38
2023-01-07T08:28:46.889Z,6.39
2023-01-07T08:29:46.001Z,6.40
2023-01-07T08:30:45.995Z,6.42
2023-01-07T08:31:45.975Z,6.43
2023-01-07T08:32:45.965Z,6.43
2023-01-07T08:33:45.953Z,6.44
2023-01-07T08:34:45.989Z,6.44
2023-01-07T08:35:45.920Z,6.44
2023-01-07T08:36:45.898Z,6.44
2023-01-07T08:37:45.898Z,6.45
2023-01-07T08:38:45.889Z,6.46
2023-01-07T08:39:45.862Z,6.46
2023-01-07T08:40:45.891Z,6.47
2023-01-07T08:41:45.831Z,6.48
2023-01-07T08:42:45.830Z,6.48
2023-01-07T08:43:45.806Z,6.49
2023-01-07T08:44:45.797Z,6.49
2023-01-07T08:45:45.778Z,6.50
2023-01-07T08:46:45.842Z,6.52
2023-01-07T08:47:45.904Z,6.54
2023-01-07T08:48:45.753Z,6.56
2023-01-07T08:49:45.719Z,6.57
2023-01-07T08:50:45.735Z,6.59
2023-01-07T08:51:45.707Z,6.60
2023-01-07T08:52:45.699Z,6.60
2023-01-07T08:53:45.661Z,6.61
2023-01-07T08:54:47.955Z,6.62
2023-01-07T08:55:45.668Z,6.63
2023-01-07T08:56:45.648Z,6.65
2023-01-07T08:57:45.630Z,6.67
2023-01-07T08:58:45.614Z,6.70
2023-01-07T08:59:45.653Z,6.75
2023-01-07T09:00:45.617Z,6.81
2023-01-07T09:01:45.772Z,6.88
2023-01-07T09:02:45.688Z,6.95
2023-01-07T09:03:45.586Z,7.04
2023-01-07T09:04:45.546Z,7.10
2023-01-07T09:05:45.531Z,7.15
2023-01-07T09:06:45.505Z,7.17
2023-01-07T09:07:45.492Z,7.17
2023-01-07T09:08:45.471Z,7.15
2023-01-07T09:09:45.484Z,7.13
2023-01-07T09:10:45.439Z,7.11
2023-01-07T09:11:45.434Z,7.12
2023-01-07T09:12:45.647Z,7.13
2023-01-07T09:13:45.616Z,7.12
2023-01-07T09:14:45.462Z,7.11
2023-01-07T09:15:45.393Z,7.11
2023-01-07T09:16:45.399Z,7.10
2023-01-07T09:17:45.364Z,7.10
2023-01-07T09:18:45.347Z,7.10
2023-01-07T09:19:45.315Z,7.09
2023-01-07T09:20:45.339Z,7.09
2023-01-07T09:21:45.285Z,7.08
2023-01-07T09:22:45.312Z,7.07
2023-01-07T09:23:45.256Z,7.05
2023-01-07T09:24:47.130Z,7.03
2023-01-07T09:25:45.241Z,7.02
2023-01-07T09:26:45.244Z,7.02
2023-01-07T09:27:45.230Z,7.02
2023-01-07T09:28:45.221Z,7.02
2023-01-07T09:29:45.196Z,7.02
2023-01-07T09:30:45.194Z,7.02
2023-01-07T09:31:45.209Z,7.03
2023-01-07T09:32:45.163Z,7.04
2023-01-07T09:33:45.145Z,7.06
2023-01-07T09:34:45.177Z,7.07
2023-01-07T09:35:45.114Z,7.08
2023-01-07T09:36:45.129Z,7.09
2023-01-07T09:37:45.090Z,7.10
2023-01-07T09:38:45.069Z,7.12
2023-01-07T09:39:45.075Z,7.15
2023-01-07T09:40:45.034Z,7.18
2023-01-07T09:41:45.048Z,7.21
2023-01-07T09:42:45.060Z,7.23
2023-01-07T09:43:58.742Z,7.25
2023-01-07T09:44:44.995Z,7.26
2023-01-07T09:45:44.990Z,7.29
2023-01-07T09:46:44.978Z,7.31
2023-01-07T09:47:44.959Z,7.34
2023-01-07T09:48:45.024Z,7.35
2023-01-07T09:49:44.934Z,7.39
2023-01-07T09:50:44.920Z,7.42
2023-01-07T09:51:44.900Z,7.45
2023-01-07T09:52:44.885Z,7.47
2023-01-07T09:53:44.940Z,7.51
2023-01-07T09:54:44.910Z,7.56
2023-01-07T09:56:10.505Z,7.60
2023-01-07T09:56:44.823Z,7.64
2023-01-07T09:57:44.806Z,7.66
2023-01-07T09:58:44.814Z,7.67
2023-01-07T09:59:44.809Z,7.69
2023-01-07T10:00:44.767Z,7.72
2023-01-07T10:01:44.763Z,7.78
2023-01-07T10:02:44.769Z,7.81
2023-01-07T10:03:44.752Z,7.86
2023-01-07T10:04:44.757Z,7.99
2023-01-07T10:05:44.715Z,8.26
2023-01-07T10:06:44.707Z,8.55
2023-01-07T10:07:44.705Z,8.72
2023-01-07T10:08:44.716Z,8.78
2023-01-07T10:09:44.656Z,8.74
2023-01-07T10:10:44.628Z,8.62
2023-01-07T10:11:44.637Z,8.49
2023-01-07T10:12:44.606Z,8.35
2023-01-07T10:13:44.601Z,8.23
2023-01-07T10:14:44.597Z,8.13
2023-01-07T10:15:44.591Z,8.07
2023-01-07T10:16:44.597Z,8.05
2023-01-07T10:17:44.568Z,8.02
2023-01-07T10:18:44.551Z,8.01
2023-01-07T10:19:44.528Z,8.00
2023-01-07T10:20:44.524Z,7.98
2023-01-07T10:21:45.167Z,7.95
2023-01-07T10:22:44.516Z,7.94
2023-01-07T10:23:44.457Z,7.92
2023-01-07T10:24:44.455Z,7.91
2023-01-07T10:25:44.454Z,7.92
2023-01-07T10:26:44.441Z,7.93
2023-01-07T10:27:44.416Z,7.94
2023-01-07T10:28:44.392Z,7.96
2023-01-07T10:29:44.389Z,7.97
2023-01-07T10:30:44.412Z,7.99
2023-01-07T10:31:44.441Z,8.02
2023-01-07T10:32:44.353Z,8.04
2023-01-07T10:33:44.394Z,8.08
2023-01-07T10:34:44.341Z,8.12
2023-01-07T10:35:44.349Z,8.16
2023-01-07T10:36:44.321Z,8.17
2023-01-07T10:37:44.326Z,8.18
2023-01-07T10:38:44.283Z,8.18
2023-01-07T10:39:44.250Z,8.17
2023-01-07T10:40:44.241Z,8.16
2023-01-07T10:41:44.258Z,8.16
2023-01-07T10:42:44.260Z,8.15
2023-01-07T10:43:44.272Z,8.14
2023-01-07T10:44:44.213Z,8.12
2023-01-07T10:45:44.217Z,8.10
2023-01-07T10:46:44.254Z,8.09
2023-01-07T10:47:44.202Z,8.09
2023-01-07T10:48:44.122Z,8.08
2023-01-07T10:49:44.136Z,8.06
2023-01-07T10:50:44.137Z,8.05
2023-01-07T10:51:44.098Z,8.05
2023-01-07T10:52:44.094Z,8.05
2023-01-07T10:53:44.072Z,8.06
2023-01-07T10:54:44.060Z,8.06
2023-01-07T10:55:44.022Z,8.07
2023-01-07T10:56:44.089Z,8.08
2023-01-07T10:57:44.011Z,8.09
2023-01-07T10:58:44.003Z,8.10
2023-01-07T10:59:44.005Z,8.12
2023-01-07T11:00:44.012Z,8.14
2023-01-07T11:01:44.196Z,8.17
2023-01-07T11:02:43.987Z,8.19
2023-01-07T11:03:43.956Z,8.22
2023-01-07T11:04:43.905Z,8.25
2023-01-07T11:05:43.891Z,8.28
2023-01-07T11:06:43.889Z,8.32
2023-01-07T11:07:43.879Z,8.36
2023-01-07T11:08:43.871Z,8.40
2023-01-07T11:09:43.847Z,8.43
2023-01-07T11:10:43.878Z,8.46
2023-01-07T11:11:43.830Z,8.49
2023-01-07T11:12:43.867Z,8.52
2023-01-07T11:13:43.798Z,8.53
2023-01-07T11:14:43.819Z,8.55
2023-01-07T11:15:43.786Z,8.57
2023-01-07T11:16:43.838Z,8.58
2023-01-07T11:17:43.740Z,8.60
2023-01-07T11:18:43.745Z,8.62
2023-01-07T11:19:43.738Z,8.64
2023-01-07T11:20:43.693Z,8.65
2023-01-07T11:21:44.669Z,8.66
2023-01-07T11:22:43.695Z,8.66
2023-01-07T11:23:44.135Z,8.67
2023-01-07T11:24:43.644Z,8.68
2023-01-07T11:25:43.722Z,8.71
2023-01-07T11:26:43.646Z,8.73
2023-01-07T11:27:43.629Z,8.76
2023-01-07T11:28:43.621Z,8.78
2023-01-07T11:29:43.617Z,8.79
2023-01-07T11:30:43.589Z,8.81
2023-01-07T11:31:43.597Z,8.82
2023-01-07T11:32:43.582Z,8.84
2023-01-07T11:34:01.267Z,8.85
2023-01-07T11:34:43.550Z,8.87
2023-01-07T11:35:43.528Z,8.87
2023-01-07T11:36:43.528Z,8.87
2023-01-07T11:37:43.493Z,8.87
2023-01-07T11:38:43.498Z,8.87
2023-01-07T11:39:43.457Z,8.87
2023-01-07T11:40:43.451Z,8.88
2023-01-07T11:41:43.424Z,8.88
2023-01-07T11:42:43.431Z,8.89
2023-01-07T11:43:43.400Z,8.91
2023-01-07T11:44:43.408Z,8.93
2023-01-07T11:45:43.396Z,8.96
2023-01-07T11:46:43.500Z,8.98
2023-01-07T11:47:43.362Z,9.01
2023-01-07T11:48:43.344Z,9.02
2023-01-07T11:49:43.310Z,9.04
2023-01-07T11:50:43.320Z,9.04
2023-01-07T11:51:43.363Z,9.04
2023-01-07T11:52:43.280Z,9.05
2023-01-07T11:53:43.270Z,9.06
2023-01-07T11:54:43.285Z,9.07
2023-01-07T11:55:43.255Z,9.08
2023-01-07T11:56:43.225Z,9.08
2023-01-07T11:57:43.214Z,9.09
2023-01-07T11:58:43.303Z,9.09
2023-01-07T11:59:43.199Z,9.09
2023-01-07T12:00:43.182Z,9.07
2023-01-07T12:01:43.162Z,9.06
2023-01-07T12:02:43.264Z,9.05
2023-01-07T12:03:43.258Z,9.04
2023-01-07T12:04:43.210Z,9.03
2023-01-07T12:05:43.091Z,9.02
2023-01-07T12:06:43.086Z,9.02
2023-01-07T12:07:43.095Z,9.01
2023-01-07T12:08:43.158Z,9.02
2023-01-07T12:09:43.110Z,9.03
2023-01-07T12:10:43.106Z,9.03
2023-01-07T12:11:43.046Z,9.03
2023-01-07T12:12:43.057Z,9.03
2023-01-07T12:13:43.031Z,9.03
2023-01-07T12:14:43.009Z,9.04
2023-01-07T12:15:42.965Z,9.04
2023-01-07T12:16:43.020Z,9.04
2023-01-07T12:17:42.961Z,9.04
2023-01-07T12:18:42.930Z,9.04
2023-01-07T12:19:42.910Z,9.04
2023-01-07T12:20:42.934Z,9.04
2023-01-07T12:21:42.914Z,9.04
2023-01-07T12:22:42.894Z,9.05
2023-01-07T12:23:42.900Z,9.05
2023-01-07T12:24:42.878Z,9.06
2023-01-07T12:25:42.845Z,9.06
2023-01-07T12:26:42.841Z,9.07
2023-01-07T12:27:42.820Z,9.08
2023-01-07T12:28:42.774Z,9.09
2023-01-07T12:29:42.779Z,9.10
2023-01-07T12:30:44.126Z,9.11
2023-01-07T12:31:42.803Z,9.13
2023-01-07T12:32:42.745Z,9.14
2023-01-07T12:33:42.751Z,9.16
2023-01-07T12:34:42.711Z,9.18
2023-01-07T12:35:42.733Z,9.20
2023-01-07T12:36:42.731Z,9.22
2023-01-07T12:37:42.710Z,9.23
2023-01-07T12:38:42.667Z,9.25
2023-01-07T12:39:42.658Z,9.27
2023-01-07T12:40:42.649Z,9.29
2023-01-07T12:41:42.604Z,9.29
2023-01-07T12:42:42.618Z,9.31
2023-01-07T12:43:42.605Z,9.32
2023-01-07T12:44:42.562Z,9.34
2023-01-07T12:45:42.566Z,9.37
2023-01-07T12:46:42.572Z,9.39
2023-01-07T12:47:42.546Z,9.41
2023-01-07T12:48:42.505Z,9.42
2023-01-07T12:49:42.523Z,9.44
2023-01-07T12:50:42.497Z,9.45
2023-01-07T12:51:42.514Z,9.47
2023-01-07T12:52:42.568Z,9.49
2023-01-07T12:53:42.486Z,9.51
2023-01-07T12:54:42.611Z,9.52
2023-01-07T12:55:42.481Z,9.53
2023-01-07T12:56:42.513Z,9.53
2023-01-07T12:57:42.412Z,9.52
2023-01-07T12:58:42.410Z,9.51
2023-01-07T12:59:46.478Z,9.51
2023-01-07T13:00:42.371Z,9.51
2023-01-07T13:01:42.491Z,9.51
2023-01-07T13:02:42.347Z,9.52
2023-01-07T13:03:42.339Z,9.53
2023-01-07T13:04:42.444Z,9.53
2023-01-07T13:05:42.317Z,9.53
2023-01-07T13:06:42.310Z,9.53
2023-01-07T13:07:42.264Z,9.54
2023-01-07T13:08:42.241Z,9.55
2023-01-07T13:09:42.280Z,9.54
2023-01-07T13:10:42.240Z,9.53
2023-01-07T13:11:42.224Z,9.51
2023-01-07T13:12:43.145Z,9.50
2023-01-07T13:13:42.183Z,9.49
2023-01-07T13:14:42.209Z,9.49
2023-01-07T13:15:42.202Z,9.49
2023-01-07T13:16:42.157Z,9.49
2023-01-07T13:17:42.122Z,9.49
2023-01-07T13:18:42.119Z,9.51